Arnett, West Virginia
Current Conditions -  °F | °C
As of 8:51 PM on Tuesday 21 Oct 2014 (Local Time) from KBKW Reporting Station
Light Rain Light Rain  
Wind Chill: 38°   Ceiling: 700
Heat Index: 43°   Visibility: 6mi
Dew Point: 40°   Wind: 9mph
Humidity: 89%   Direction: 300°WNW
Pressure: 30.03"   Gusts: NA
Location:  37.83°N, 81.43°W
Report Text: KBKW 220051Z AUTO 30008KT 6SM -RA BR OVC007 06/04 A3003 RMK AO2 CIG 004V011 SLP174 P0001 T00610044 TSNO
Loading
Personal Weather Stations






























Interactive Weather Map
Tropical Storm Tracking
New forecast layout! Learn more

10-Day Weather Forecast

Advertisements
Track Severe Weather on mobile